Meteorología y climatología de Navarra
Datos de la estación - Meteo Navarra

Estación de Carrascal GN

Altitud 568 m.


Datos desde el 10/10/2019 hasta el 11/10/2019 en horario solar
Los datos son PROVISIONALES

Anterior Página 1 de 1 Siguiente Descargar: Formato para Excel 2000 o superior   Formato csv   Formato para OpenOffice Calc
Fecha Temperatura Humedad relativa Radiación global Insolación Precipitación Vel. viento 10 m Vel. viento 10 m Dir. viento 10 m
ºC % W/m² s l/m² m/s km/h º
10/10/2019 0:00 9.3 87 0.0 0 0.0 3.3 12.0 24
10/10/2019 0:10 9.3 87 0.0 0 0.0 3.1 11.0 16
10/10/2019 0:20 9.2 88 0.0 0 0.0 4.0 14.3 17
10/10/2019 0:30 9.5 87 0.0 0 0.0 4.9 17.5 17
10/10/2019 0:40 10.0 85 0.0 0 0.0 3.9 13.9 22
10/10/2019 0:50 10.0 85 0.0 0 0.0 2.2 7.8 24
10/10/2019 1:00 9.4 86 0.0 0 0.0 3.2 11.7 34
10/10/2019 1:10 9.1 88 0.0 0 0.0 4.3 15.4 49
10/10/2019 1:20 9.1 88 0.0 0 0.0 5.0 18.1 46
10/10/2019 1:30 9.7 87 0.0 0 0.0 4.6 16.7 42
10/10/2019 1:40 9.7 86 0.0 0 0.0 5.2 18.6 49
10/10/2019 1:50 10.2 85 0.0 0 0.0 5.1 18.5 52
10/10/2019 2:00 10.1 85 0.0 0 0.0 5.7 20.4 47
10/10/2019 2:10 9.7 86 0.0 0 0.0 5.8 20.8 37
10/10/2019 2:20 9.8 86 0.0 0 0.0 5.0 18.0 27
10/10/2019 2:30 9.9 86 0.0 0 0.0 5.2 18.6 29
10/10/2019 2:40 10.0 86 0.0 0 0.0 5.2 18.6 37
10/10/2019 2:50 9.5 87 0.0 0 0.0 5.4 19.5 36
10/10/2019 3:00 9.5 88 0.0 0 0.0 5.2 18.6 38
10/10/2019 3:10 9.2 89 0.0 0 0.0 4.3 15.6 35
10/10/2019 3:20 8.4 89 0.0 0 0.0 3.3 12.0 42
10/10/2019 3:30 8.1 92 0.0 0 0.0 3.4 12.1 32
10/10/2019 3:40 8.3 92 0.0 0 0.0 3.5 12.6 30
10/10/2019 3:50 8.1 92 0.0 0 0.0 4.6 16.7 18
10/10/2019 4:00 8.0 93 0.0 0 0.0 5.2 18.6 18
10/10/2019 4:10 7.9 92 0.0 0 0.0 5.3 19.0 22
10/10/2019 4:20 7.7 93 0.0 0 0.0 6.0 21.7 21
10/10/2019 4:30 7.7 94 0.0 0 0.0 5.7 20.6 20
10/10/2019 4:40 7.8 93 0.0 0 0.0 6.2 22.5 29
10/10/2019 4:50 7.7 94 0.0 0 0.0 7.5 26.9 37
10/10/2019 5:00 7.9 94 0.0 0 0.0 7.7 27.8 34
10/10/2019 5:10 7.7 93 0.0 0 0.0 6.9 24.9 33
10/10/2019 5:20 7.8 94 0.0 0 0.0 7.7 27.8 37
10/10/2019 5:30 7.8 94 0.0 0 0.0 8.0 28.8 35
10/10/2019 5:40 7.7 94 0.0 0 0.0 7.6 27.2 31
10/10/2019 5:50 7.8 94 0.0 0 0.0 7.7 27.8 37
10/10/2019 6:00 7.4 95 0.0 0 0.0 7.3 26.4 48
10/10/2019 6:10 7.5 95 0.0 0 0.0 8.0 28.9 41
10/10/2019 6:20 7.8 95 0.0 0 0.0 8.3 29.9 38
10/10/2019 6:30 7.9 94 0.1 0 0.0 9.1 32.7 43
10/10/2019 6:40 8.1 94 20.8 0 0.0 8.8 31.8 40
10/10/2019 6:50 8.7 92 27.1 0 0.0 8.8 31.5 40
10/10/2019 7:00 8.8 91 33.2 0 0.0 8.7 31.5 48
10/10/2019 7:10 8.5 92 67.8 204 0.0 9.3 33.6 47
10/10/2019 7:20 8.6 92 148.6 600 0.0 9.2 33.2 39
10/10/2019 7:30 8.9 91 179.3 600 0.0 9.1 32.7 38
10/10/2019 7:40 9.3 89 209.0 600 0.0 9.4 33.8 40
10/10/2019 7:50 10.1 87 237.0 600 0.0 9.1 32.9 42
10/10/2019 8:00 10.1 87 264.1 600 0.0 9.2 33.1 43
10/10/2019 8:10 10.6 85 290.4 600 0.0 9.3 33.6 40
10/10/2019 8:20 11.4 81 317.7 600 0.0 9.6 34.6 44
10/10/2019 8:30 11.6 80 345.9 600 0.0 9.0 32.4 44
10/10/2019 8:40 12.1 77 372.7 600 0.0 8.7 31.4 41
10/10/2019 8:50 12.4 75 398.2 600 0.0 7.4 26.8 42
10/10/2019 9:00 12.6 74 424.4 600 0.0 7.2 26.0 51
10/10/2019 9:10 12.9 73 449.2 600 0.0 6.8 24.4 43
10/10/2019 9:20 13.2 72 474.1 600 0.0 6.2 22.4 47
10/10/2019 9:30 13.4 70 498.9 600 0.0 6.2 22.5 51
10/10/2019 9:40 13.8 69 521.7 600 0.0 5.9 21.2 50
10/10/2019 9:50 14.1 67 545.1 600 0.0 5.9 21.3 57
10/10/2019 10:00 14.4 66 567.7 600 0.0 5.9 21.2 59
10/10/2019 10:10 14.7 64 586.4 600 0.0 5.5 19.6 61
10/10/2019 10:20 15.3 61 606.7 600 0.0 5.8 21.0 56
10/10/2019 10:30 15.7 59 623.8 600 0.0 5.6 20.2 51
10/10/2019 10:40 16.1 57 637.9 600 0.0 6.0 21.5 48
10/10/2019 10:50 16.2 57 650.1 600 0.0 5.7 20.5 44
10/10/2019 11:00 16.5 56 661.8 600 0.0 5.3 19.2 37
10/10/2019 11:10 16.9 55 673.3 600 0.0 5.4 19.6 47
10/10/2019 11:20 16.8 54 681.1 600 0.0 5.2 18.9 58
10/10/2019 11:30 17.3 53 687.5 600 0.0 5.0 17.8 55
10/10/2019 11:40 17.6 51 692.0 600 0.0 5.0 17.8 43
10/10/2019 11:50 17.9 50 694.1 600 0.0 4.6 16.5 63
10/10/2019 12:00 18.2 49 662.9 600 0.0 4.9 17.8 68
10/10/2019 12:10 18.2 49 697.6 600 0.0 4.3 15.4 61
10/10/2019 12:20 18.4 47 695.5 600 0.0 3.3 11.8 70
10/10/2019 12:30 18.4 47 688.6 600 0.0 4.0 14.2 69
10/10/2019 12:40 18.7 45 682.3 600 0.0 3.7 13.2 63
10/10/2019 12:50 18.6 45 678.5 600 0.0 3.8 13.8 57
10/10/2019 13:00 18.9 44 666.9 600 0.0 3.8 13.7 40
10/10/2019 13:10 19.8 40 659.3 600 0.0 3.8 13.6 358
10/10/2019 13:20 19.3 41 646.0 600 0.0 3.7 13.3 5
10/10/2019 13:30 19.7 40 629.0 600 0.0 3.1 11.2 14
10/10/2019 13:40 19.7 39 562.3 600 0.0 3.4 12.4 359
10/10/2019 13:50 19.8 40 569.3 600 0.0 3.6 13.1 39
10/10/2019 14:00 20.2 40 540.8 600 0.0 3.7 13.2 359
10/10/2019 14:10 20.1 38 543.1 600 0.0 3.2 11.5 4
10/10/2019 14:20 20.1 37 527.4 600 0.0 3.7 13.2 7
10/10/2019 14:30 19.9 37 500.7 600 0.0 2.8 10.0 21
10/10/2019 14:40 20.0 36 481.4 600 0.0 3.6 12.9 27
10/10/2019 14:50 20.0 36 455.2 600 0.0 3.1 11.1 35
10/10/2019 15:00 20.1 36 427.1 600 0.0 3.0 10.9 1
10/10/2019 15:10 20.2 36 406.1 600 0.0 3.5 12.6 21
10/10/2019 15:20 20.1 36 376.4 600 0.0 4.0 14.3 22
10/10/2019 15:30 19.9 37 349.1 600 0.0 4.4 16.0 10
10/10/2019 15:40 20.0 36 320.6 600 0.0 4.0 14.2 15
10/10/2019 15:50 20.0 37 290.8 600 0.0 3.9 14.1 24
10/10/2019 16:00 20.0 39 260.5 600 0.0 4.7 16.7 6
10/10/2019 16:10 19.7 39 227.0 600 0.0 4.4 16.0 12
10/10/2019 16:20 19.7 40 195.9 600 0.0 4.5 16.3 9
10/10/2019 16:30 19.6 41 166.9 600 0.0 4.2 15.1 8
10/10/2019 16:40 19.2 42 138.4 600 0.0 4.3 15.4 7
10/10/2019 16:50 19.0 42 112.0 600 0.0 4.5 16.2 8
10/10/2019 17:00 18.9 44 85.1 600 0.0 4.8 17.1 10
10/10/2019 17:10 18.5 46 58.8 600 0.0 4.3 15.4 11
10/10/2019 17:20 18.1 48 36.6 498 0.0 3.7 13.5 27
10/10/2019 17:30 17.5 51 10.4 0 0.0 4.3 15.5 49
10/10/2019 17:40 17.2 52 0.0 0 0.0 4.6 16.4 48
10/10/2019 17:50 17.0 53 0.0 0 0.0 5.3 18.9 49
10/10/2019 18:00 16.7 55 0.0 0 0.0 5.7 20.3 48
10/10/2019 18:10 16.5 56 0.0 0 0.0 5.1 18.3 49
10/10/2019 18:20 16.1 58 0.0 0 0.0 5.1 18.2 46
10/10/2019 18:30 15.9 59 0.0 0 0.0 4.3 15.6 49
10/10/2019 18:40 15.4 60 0.0 0 0.0 4.2 15.1 52
10/10/2019 18:50 15.1 62 0.0 0 0.0 4.1 14.6 45
10/10/2019 19:00 14.7 63 0.0 0 0.0 3.4 12.4 49
10/10/2019 19:10 14.4 64 0.0 0 0.0 3.0 10.8 49
10/10/2019 19:20 14.6 65 0.0 0 0.0 2.3 8.1 59
10/10/2019 19:30 14.4 65 0.0 0 0.0 2.4 8.8 59
10/10/2019 19:40 13.7 67 0.0 0 0.0 2.3 8.2 63
10/10/2019 19:50 13.9 68 0.0 0 0.0 2.4 8.5 53
10/10/2019 20:00 13.9 67 0.0 0 0.0 2.1 7.6 49
10/10/2019 20:10 13.4 68 0.0 0 0.0 2.5 8.8 63
10/10/2019 20:20 12.7 70 0.0 0 0.0 2.8 10.2 55
10/10/2019 20:30 12.6 71 0.0 0 0.0 2.6 9.4 50
10/10/2019 20:40 12.7 70 0.0 0 0.0 1.9 6.8 40
10/10/2019 20:50 12.3 71 0.0 0 0.0 2.2 8.1 21
10/10/2019 21:00 12.2 72 0.0 0 0.0 2.3 8.2 31
10/10/2019 21:10 12.8 72 0.0 0 0.0 1.9 6.9 35
10/10/2019 21:20 13.2 70 0.0 0 0.0 1.4 5.1 19
10/10/2019 21:30 12.2 72 0.0 0 0.0 1.5 5.2 15
10/10/2019 21:40 12.1 74 0.0 0 0.0 1.1 4.0 51
10/10/2019 21:50 12.5 74 0.0 0 0.0 1.0 3.4 58
10/10/2019 22:00 12.2 74 0.0 0 0.0 1.5 5.5 51
10/10/2019 22:10 11.6 75 0.0 0 0.0 1.9 6.8 46
10/10/2019 22:20 11.5 76 0.0 0 0.0 1.6 5.7 33
10/10/2019 22:30 11.8 77 0.0 0 0.0 0.5 1.9 33
10/10/2019 22:40 12.3 75 0.0 0 0.0 0.7 2.4 18
10/10/2019 22:50 12.2 74 0.0 0 0.0 0.6 2.3 24
10/10/2019 23:00 12.3 74 0.0 0 0.0 1.6 5.8 47
10/10/2019 23:10 11.9 73 0.0 0 0.0 1.6 5.7 29
10/10/2019 23:20 11.2 76 0.0 0 0.0 1.2 4.4 24
10/10/2019 23:30 11.1 76 0.0 0 0.0 0.5 1.7 14
10/10/2019 23:40 10.4 79 0.0 0 0.0 0.2 0.5 345
10/10/2019 23:50 10.8 79 0.0 0 0.0 0.7 2.5 18
Anterior Página 1 de 1 Siguiente

NOTA: Tipo de datos según el color:
   - Valores diarios o 10 minutos correctos
   - Valores diarios calculados a partir de un número de datos 10 minutos menor que 144 y mayor que 120, o de un número de datos semihorarios menor que 48 y mayor que 40 (caso de las estaciones de Riegos de Navarra y del MARM)
   - Valores diez minutos estimados


Contacto        Enlaces        Aviso legal